sensor_id;sensor_type;location;lat;lon;timestamp;temperature;humidity
16515;DHT22;8370;52.556;7.970;2022-08-11T00:00:37;17.50;99.90
16515;DHT22;8370;52.556;7.970;2022-08-11T00:03:06;17.40;99.90
16515;DHT22;8370;52.556;7.970;2022-08-11T00:05:42;17.40;99.90
16515;DHT22;8370;52.556;7.970;2022-08-11T00:08:09;17.40;99.90
16515;DHT22;8370;52.556;7.970;2022-08-11T00:10:36;17.30;99.90
16515;DHT22;8370;52.556;7.970;2022-08-11T00:13:04;17.30;99.90
16515;DHT22;8370;52.556;7.970;2022-08-11T00:15:41;17.30;99.90
16515;DHT22;8370;52.556;7.970;2022-08-11T00:18:07;17.30;99.90
16515;DHT22;8370;52.556;7.970;2022-08-11T00:20:36;17.20;99.90
16515;DHT22;8370;52.556;7.970;2022-08-11T00:23:07;17.10;99.90
16515;DHT22;8370;52.556;7.970;2022-08-11T00:25:48;17.10;99.90
16515;DHT22;8370;52.556;7.970;2022-08-11T00:28:29;17.00;99.90
16515;DHT22;8370;52.556;7.970;2022-08-11T00:30:58;16.90;99.90
16515;DHT22;8370;52.556;7.970;2022-08-11T00:33:38;16.90;99.90
16515;DHT22;8370;52.556;7.970;2022-08-11T00:36:04;16.90;99.90
16515;DHT22;8370;52.556;7.970;2022-08-11T00:38:33;16.90;99.90
16515;DHT22;8370;52.556;7.970;2022-08-11T00:41:31;16.80;99.90
16515;DHT22;8370;52.556;7.970;2022-08-11T00:55:54;16.50;99.90
16515;DHT22;8370;52.556;7.970;2022-08-11T00:58:40;16.40;99.90
16515;DHT22;8370;52.556;7.970;2022-08-11T01:09:55;16.40;99.90
16515;DHT22;8370;52.556;7.970;2022-08-11T01:18:15;16.30;99.90
16515;DHT22;8370;52.556;7.970;2022-08-11T01:41:14;16.10;99.90
16515;DHT22;8370;52.556;7.970;2022-08-11T01:47:13;16.10;99.90
16515;DHT22;8370;52.556;7.970;2022-08-11T01:53:17;16.00;99.90
16515;DHT22;8370;52.556;7.970;2022-08-11T01:56:30;16.00;99.90
16515;DHT22;8370;52.556;7.970;2022-08-11T01:59:13;16.00;99.90
16515;DHT22;8370;52.556;7.970;2022-08-11T02:07:32;16.00;99.90
16515;DHT22;8370;52.556;7.970;2022-08-11T02:10:17;15.90;99.90
16515;DHT22;8370;52.556;7.970;2022-08-11T02:13:39;15.90;99.90
16515;DHT22;8370;52.556;7.970;2022-08-11T02:16:20;15.80;99.90
16515;DHT22;8370;52.556;7.970;2022-08-11T02:22:03;15.70;99.90
16515;DHT22;8370;52.556;7.970;2022-08-11T02:25:02;15.70;99.90
16515;DHT22;8370;52.556;7.970;2022-08-11T02:27:37;15.60;99.90
16515;DHT22;8370;52.556;7.970;2022-08-11T02:30:08;15.60;99.90
16515;DHT22;8370;52.556;7.970;2022-08-11T02:32:59;15.60;99.90
16515;DHT22;8370;52.556;7.970;2022-08-11T02:38:46;15.60;99.90
16515;DHT22;8370;52.556;7.970;2022-08-11T02:44:56;15.50;99.90
16515;DHT22;8370;52.556;7.970;2022-08-11T02:53:50;15.40;99.90
16515;DHT22;8370;52.556;7.970;2022-08-11T02:56:48;15.40;99.90
16515;DHT22;8370;52.556;7.970;2022-08-11T03:13:57;15.00;99.90
16515;DHT22;8370;52.556;7.970;2022-08-11T03:16:53;15.00;99.90
16515;DHT22;8370;52.556;7.970;2022-08-11T03:27:31;14.90;99.90
16515;DHT22;8370;52.556;7.970;2022-08-11T03:33:01;14.80;99.90
16515;DHT22;8370;52.556;7.970;2022-08-11T03:41:44;14.80;99.90
16515;DHT22;8370;52.556;7.970;2022-08-11T03:44:35;14.80;99.90
16515;DHT22;8370;52.556;7.970;2022-08-11T03:50:11;14.80;99.90
16515;DHT22;8370;52.556;7.970;2022-08-11T03:52:48;14.70;99.90
16515;DHT22;8370;52.556;7.970;2022-08-11T03:55:29;14.70;99.90
16515;DHT22;8370;52.556;7.970;2022-08-11T04:12:24;14.60;99.90
16515;DHT22;8370;52.556;7.970;2022-08-11T04:18:18;14.50;99.90
16515;DHT22;8370;52.556;7.970;2022-08-11T04:26:13;14.30;99.90
16515;DHT22;8370;52.556;7.970;2022-08-11T04:32:25;14.30;99.90
16515;DHT22;8370;52.556;7.970;2022-08-11T04:35:18;14.20;99.90
16515;DHT22;8370;52.556;7.970;2022-08-11T04:38:13;14.20;99.90
16515;DHT22;8370;52.556;7.970;2022-08-11T04:44:14;14.20;99.90
16515;DHT22;8370;52.556;7.970;2022-08-11T04:47:13;14.20;99.90
16515;DHT22;8370;52.556;7.970;2022-08-11T04:50:14;14.30;99.90
16515;DHT22;8370;52.556;7.970;2022-08-11T04:56:10;14.40;99.90
16515;DHT22;8370;52.556;7.970;2022-08-11T04:59:19;14.40;99.90
16515;DHT22;8370;52.556;7.970;2022-08-11T05:02:33;14.50;99.90
16515;DHT22;8370;52.556;7.970;2022-08-11T05:05:21;14.50;99.90
16515;DHT22;8370;52.556;7.970;2022-08-11T05:16:57;14.80;99.90
16515;DHT22;8370;52.556;7.970;2022-08-11T05:19:45;14.90;99.90
16515;DHT22;8370;52.556;7.970;2022-08-11T05:22:30;15.00;99.90
16515;DHT22;8370;52.556;7.970;2022-08-11T05:25:24;15.00;99.90
16515;DHT22;8370;52.556;7.970;2022-08-11T05:28:12;15.10;99.90
16515;DHT22;8370;52.556;7.970;2022-08-11T05:31:03;15.20;99.90
16515;DHT22;8370;52.556;7.970;2022-08-11T05:33:51;15.20;99.90
16515;DHT22;8370;52.556;7.970;2022-08-11T05:36:44;15.30;99.90
16515;DHT22;8370;52.556;7.970;2022-08-11T05:39:22;15.40;99.90
16515;DHT22;8370;52.556;7.970;2022-08-11T05:42:07;15.50;99.90
16515;DHT22;8370;52.556;7.970;2022-08-11T05:45:00;15.60;99.90
16515;DHT22;8370;52.556;7.970;2022-08-11T05:47:50;15.60;99.90
16515;DHT22;8370;52.556;7.970;2022-08-11T05:50:35;15.70;99.90
16515;DHT22;8370;52.556;7.970;2022-08-11T05:53:19;15.70;99.90
16515;DHT22;8370;52.556;7.970;2022-08-11T05:56:04;15.80;99.90
16515;DHT22;8370;52.556;7.970;2022-08-11T05:58:49;15.90;99.90
16515;DHT22;8370;52.556;7.970;2022-08-11T06:01:26;16.00;99.90
16515;DHT22;8370;52.556;7.970;2022-08-11T06:03:55;16.10;99.90
16515;DHT22;8370;52.556;7.970;2022-08-11T06:06:49;16.10;99.90
16515;DHT22;8370;52.556;7.970;2022-08-11T06:09:37;16.20;99.90
16515;DHT22;8370;52.556;7.970;2022-08-11T06:12:04;16.30;99.90
16515;DHT22;8370;52.556;7.970;2022-08-11T06:14:31;16.40;99.90
16515;DHT22;8370;52.556;7.970;2022-08-11T06:16:59;16.40;99.90
16515;DHT22;8370;52.556;7.970;2022-08-11T06:20:04;16.50;99.90
16515;DHT22;8370;52.556;7.970;2022-08-11T06:22:31;16.60;99.90
16515;DHT22;8370;52.556;7.970;2022-08-11T06:25:00;16.70;99.90
16515;DHT22;8370;52.556;7.970;2022-08-11T06:27:29;16.80;99.90
16515;DHT22;8370;52.556;7.970;2022-08-11T06:29:56;16.90;99.90
16515;DHT22;8370;52.556;7.970;2022-08-11T06:32:31;17.00;99.90
16515;DHT22;8370;52.556;7.970;2022-08-11T06:35:06;17.10;99.90
16515;DHT22;8370;52.556;7.970;2022-08-11T06:43:20;17.50;99.90
16515;DHT22;8370;52.556;7.970;2022-08-11T06:45:52;17.60;99.90
16515;DHT22;8370;52.556;7.970;2022-08-11T06:48:22;17.70;99.90
16515;DHT22;8370;52.556;7.970;2022-08-11T06:50:56;17.80;99.90
16515;DHT22;8370;52.556;7.970;2022-08-11T06:53:45;18.00;99.90
16515;DHT22;8370;52.556;7.970;2022-08-11T06:56:12;18.10;99.90
16515;DHT22;8370;52.556;7.970;2022-08-11T06:58:59;18.20;99.90
16515;DHT22;8370;52.556;7.970;2022-08-11T07:04:46;18.40;99.90
16515;DHT22;8370;52.556;7.970;2022-08-11T07:13:09;18.80;99.90
16515;DHT22;8370;52.556;7.970;2022-08-11T07:15:56;18.90;99.90
16515;DHT22;8370;52.556;7.970;2022-08-11T07:18:28;19.00;99.90
16515;DHT22;8370;52.556;7.970;2022-08-11T07:21:26;19.20;99.90
16515;DHT22;8370;52.556;7.970;2022-08-11T07:24:16;19.30;99.90
16515;DHT22;8370;52.556;7.970;2022-08-11T07:27:05;19.40;99.90
16515;DHT22;8370;52.556;7.970;2022-08-11T07:29:51;19.60;99.90
16515;DHT22;8370;52.556;7.970;2022-08-11T07:32:25;19.80;99.90
16515;DHT22;8370;52.556;7.970;2022-08-11T07:35:17;20.00;99.90
16515;DHT22;8370;52.556;7.970;2022-08-11T07:37:54;20.10;99.90
16515;DHT22;8370;52.556;7.970;2022-08-11T07:40:23;20.20;99.90
16515;DHT22;8370;52.556;7.970;2022-08-11T07:42:49;20.30;99.90
16515;DHT22;8370;52.556;7.970;2022-08-11T07:45:16;20.40;99.90
16515;DHT22;8370;52.556;7.970;2022-08-11T07:48:01;20.60;99.90
16515;DHT22;8370;52.556;7.970;2022-08-11T07:50:47;20.70;99.90
16515;DHT22;8370;52.556;7.970;2022-08-11T07:53:32;20.80;99.90
16515;DHT22;8370;52.556;7.970;2022-08-11T07:56:00;21.00;99.90
16515;DHT22;8370;52.556;7.970;2022-08-11T07:58:27;21.10;99.90
16515;DHT22;8370;52.556;7.970;2022-08-11T08:01:19;21.20;99.90
16515;DHT22;8370;52.556;7.970;2022-08-11T08:04:04;21.40;99.90
16515;DHT22;8370;52.556;7.970;2022-08-11T08:06:49;21.60;99.90
16515;DHT22;8370;52.556;7.970;2022-08-11T08:09:34;21.80;99.90
16515;DHT22;8370;52.556;7.970;2022-08-11T08:12:23;22.00;99.90
16515;DHT22;8370;52.556;7.970;2022-08-11T08:15:10;22.20;99.90
16515;DHT22;8370;52.556;7.970;2022-08-11T08:17:56;22.40;99.90
16515;DHT22;8370;52.556;7.970;2022-08-11T08:20:35;22.60;99.90
16515;DHT22;8370;52.556;7.970;2022-08-11T08:23:01;22.80;99.90
16515;DHT22;8370;52.556;7.970;2022-08-11T08:25:30;22.90;99.90
16515;DHT22;8370;52.556;7.970;2022-08-11T08:27:58;23.10;99.90
16515;DHT22;8370;52.556;7.970;2022-08-11T08:30:25;23.20;99.90
16515;DHT22;8370;52.556;7.970;2022-08-11T08:35:43;23.50;99.90
16515;DHT22;8370;52.556;7.970;2022-08-11T08:38:10;23.60;99.90
16515;DHT22;8370;52.556;7.970;2022-08-11T08:40:39;23.80;99.90
16515;DHT22;8370;52.556;7.970;2022-08-11T08:43:08;24.00;99.90
16515;DHT22;8370;52.556;7.970;2022-08-11T08:45:36;24.20;99.90
16515;DHT22;8370;52.556;7.970;2022-08-11T08:48:16;24.30;99.90
16515;DHT22;8370;52.556;7.970;2022-08-11T08:50:52;24.40;99.90
16515;DHT22;8370;52.556;7.970;2022-08-11T08:53:39;24.60;99.90
16515;DHT22;8370;52.556;7.970;2022-08-11T08:56:06;24.70;99.90
16515;DHT22;8370;52.556;7.970;2022-08-11T08:58:35;24.80;99.90
16515;DHT22;8370;52.556;7.970;2022-08-11T09:01:02;24.90;99.90
16515;DHT22;8370;52.556;7.970;2022-08-11T09:03:28;25.00;99.90
16515;DHT22;8370;52.556;7.970;2022-08-11T09:05:54;25.10;99.90
16515;DHT22;8370;52.556;7.970;2022-08-11T09:08:21;25.20;99.90
16515;DHT22;8370;52.556;7.970;2022-08-11T09:10:49;25.40;99.90
16515;DHT22;8370;52.556;7.970;2022-08-11T09:13:35;25.60;99.90
16515;DHT22;8370;52.556;7.970;2022-08-11T09:16:04;25.80;99.90
16515;DHT22;8370;52.556;7.970;2022-08-11T09:18:31;25.80;99.90
16515;DHT22;8370;52.556;7.970;2022-08-11T09:20:57;25.90;99.90
16515;DHT22;8370;52.556;7.970;2022-08-11T09:23:22;26.10;99.90
16515;DHT22;8370;52.556;7.970;2022-08-11T09:26:07;26.20;99.90
16515;DHT22;8370;52.556;7.970;2022-08-11T09:28:52;26.40;99.90
16515;DHT22;8370;52.556;7.970;2022-08-11T09:31:18;26.60;99.90
16515;DHT22;8370;52.556;7.970;2022-08-11T09:33:47;26.70;99.90
16515;DHT22;8370;52.556;7.970;2022-08-11T09:36:17;26.90;99.90
16515;DHT22;8370;52.556;7.970;2022-08-11T09:39:04;27.10;99.90
16515;DHT22;8370;52.556;7.970;2022-08-11T09:41:49;27.30;99.90
16515;DHT22;8370;52.556;7.970;2022-08-11T09:44:15;27.40;99.90
16515;DHT22;8370;52.556;7.970;2022-08-11T09:46:59;27.60;99.90
16515;DHT22;8370;52.556;7.970;2022-08-11T09:49:25;27.70;99.90
16515;DHT22;8370;52.556;7.970;2022-08-11T09:51:53;27.80;99.90
16515;DHT22;8370;52.556;7.970;2022-08-11T09:54:19;27.90;99.90
16515;DHT22;8370;52.556;7.970;2022-08-11T09:56:45;27.90;99.90
16515;DHT22;8370;52.556;7.970;2022-08-11T09:59:29;28.00;99.90
16515;DHT22;8370;52.556;7.970;2022-08-11T10:02:00;28.00;99.80
16515;DHT22;8370;52.556;7.970;2022-08-11T10:04:39;28.20;99.80
16515;DHT22;8370;52.556;7.970;2022-08-11T10:07:05;28.30;98.70
16515;DHT22;8370;52.556;7.970;2022-08-11T10:10:00;28.40;98.30
16515;DHT22;8370;52.556;7.970;2022-08-11T10:12:40;28.50;97.20
16515;DHT22;8370;52.556;7.970;2022-08-11T10:15:11;28.50;96.60
16515;DHT22;8370;52.556;7.970;2022-08-11T10:18:15;28.50;97.00
16515;DHT22;8370;52.556;7.970;2022-08-11T10:21:13;28.70;96.50
16515;DHT22;8370;52.556;7.970;2022-08-11T10:23:39;28.80;97.10
16515;DHT22;8370;52.556;7.970;2022-08-11T10:26:26;28.90;96.50
16515;DHT22;8370;52.556;7.970;2022-08-11T10:29:11;29.00;94.90
16515;DHT22;8370;52.556;7.970;2022-08-11T10:31:56;29.00;95.20
16515;DHT22;8370;52.556;7.970;2022-08-11T10:34:45;29.00;95.20
16515;DHT22;8370;52.556;7.970;2022-08-11T10:37:11;29.10;94.90
16515;DHT22;8370;52.556;7.970;2022-08-11T10:39:38;29.10;94.50
16515;DHT22;8370;52.556;7.970;2022-08-11T10:42:05;29.20;93.90
16515;DHT22;8370;52.556;7.970;2022-08-11T10:44:53;29.30;94.00
16515;DHT22;8370;52.556;7.970;2022-08-11T10:47:20;29.40;93.90
16515;DHT22;8370;52.556;7.970;2022-08-11T10:50:08;29.50;93.70
16515;DHT22;8370;52.556;7.970;2022-08-11T10:52:58;29.60;94.20
16515;DHT22;8370;52.556;7.970;2022-08-11T10:55:44;29.70;93.30
16515;DHT22;8370;52.556;7.970;2022-08-11T10:58:30;29.70;93.00
16515;DHT22;8370;52.556;7.970;2022-08-11T11:01:26;29.80;92.00
16515;DHT22;8370;52.556;7.970;2022-08-11T11:03:57;29.90;91.60
16515;DHT22;8370;52.556;7.970;2022-08-11T11:06:50;29.90;91.80
16515;DHT22;8370;52.556;7.970;2022-08-11T11:09:23;29.90;92.10
16515;DHT22;8370;52.556;7.970;2022-08-11T11:11:56;30.00;91.60
16515;DHT22;8370;52.556;7.970;2022-08-11T11:14:42;30.10;91.40
16515;DHT22;8370;52.556;7.970;2022-08-11T11:17:29;30.10;91.50
16515;DHT22;8370;52.556;7.970;2022-08-11T11:20:20;30.20;90.80
16515;DHT22;8370;52.556;7.970;2022-08-11T11:22:54;30.30;90.70
16515;DHT22;8370;52.556;7.970;2022-08-11T11:28:25;30.40;90.50
16515;DHT22;8370;52.556;7.970;2022-08-11T11:31:12;30.40;89.20
16515;DHT22;8370;52.556;7.970;2022-08-11T11:33:51;30.40;90.20
16515;DHT22;8370;52.556;7.970;2022-08-11T11:36:30;30.60;88.90
16515;DHT22;8370;52.556;7.970;2022-08-11T11:39:02;30.70;88.50
16515;DHT22;8370;52.556;7.970;2022-08-11T11:41:27;30.90;88.80
16515;DHT22;8370;52.556;7.970;2022-08-11T11:43:57;31.10;88.30
16515;DHT22;8370;52.556;7.970;2022-08-11T11:46:26;31.40;88.00
16515;DHT22;8370;52.556;7.970;2022-08-11T11:48:53;31.60;86.70
16515;DHT22;8370;52.556;7.970;2022-08-11T11:51:21;32.20;86.30
16515;DHT22;8370;52.556;7.970;2022-08-11T11:53:47;33.00;83.60
16515;DHT22;8370;52.556;7.970;2022-08-11T11:56:14;34.30;79.20
16515;DHT22;8370;52.556;7.970;2022-08-11T11:58:40;35.90;78.50
16515;DHT22;8370;52.556;7.970;2022-08-11T12:01:24;37.60;75.80
16515;DHT22;8370;52.556;7.970;2022-08-11T12:03:52;39.60;70.10
16515;DHT22;8370;52.556;7.970;2022-08-11T12:06:20;41.20;65.80
16515;DHT22;8370;52.556;7.970;2022-08-11T12:08:49;42.60;61.70
16515;DHT22;8370;52.556;7.970;2022-08-11T12:11:16;43.70;58.50
16515;DHT22;8370;52.556;7.970;2022-08-11T12:14:22;44.60;56.90
16515;DHT22;8370;52.556;7.970;2022-08-11T12:16:50;45.80;54.40
16515;DHT22;8370;52.556;7.970;2022-08-11T12:19:22;46.40;52.60
16515;DHT22;8370;52.556;7.970;2022-08-11T12:21:49;47.10;52.40
16515;DHT22;8370;52.556;7.970;2022-08-11T12:24:34;47.50;51.30
16515;DHT22;8370;52.556;7.970;2022-08-11T12:27:19;47.70;49.90
16515;DHT22;8370;52.556;7.970;2022-08-11T12:29:50;48.00;48.90
16515;DHT22;8370;52.556;7.970;2022-08-11T12:32:18;48.50;49.10
16515;DHT22;8370;52.556;7.970;2022-08-11T12:34:44;48.50;47.00
16515;DHT22;8370;52.556;7.970;2022-08-11T12:37:10;48.70;48.10
16515;DHT22;8370;52.556;7.970;2022-08-11T12:39:43;48.90;47.50
16515;DHT22;8370;52.556;7.970;2022-08-11T12:42:30;48.70;46.70
16515;DHT22;8370;52.556;7.970;2022-08-11T12:45:16;48.00;46.50
16515;DHT22;8370;52.556;7.970;2022-08-11T12:48:12;47.40;47.00
16515;DHT22;8370;52.556;7.970;2022-08-11T12:51:08;46.70;47.50
16515;DHT22;8370;52.556;7.970;2022-08-11T12:53:59;46.00;48.60
16515;DHT22;8370;52.556;7.970;2022-08-11T12:56:31;45.20;50.00
16515;DHT22;8370;52.556;7.970;2022-08-11T12:59:19;44.20;49.20
16515;DHT22;8370;52.556;7.970;2022-08-11T13:02:04;43.20;50.20
16515;DHT22;8370;52.556;7.970;2022-08-11T13:04:49;41.90;50.20
16515;DHT22;8370;52.556;7.970;2022-08-11T13:07:27;40.70;52.10
16515;DHT22;8370;52.556;7.970;2022-08-11T13:09:54;39.60;52.20
16515;DHT22;8370;52.556;7.970;2022-08-11T13:12:22;38.60;52.40
16515;DHT22;8370;52.556;7.970;2022-08-11T13:15:10;37.90;53.80
16515;DHT22;8370;52.556;7.970;2022-08-11T13:17:37;37.30;55.00
16515;DHT22;8370;52.556;7.970;2022-08-11T13:20:04;36.70;53.40
16515;DHT22;8370;52.556;7.970;2022-08-11T13:22:30;36.10;54.80
16515;DHT22;8370;52.556;7.970;2022-08-11T13:24:56;35.60;54.90
16515;DHT22;8370;52.556;7.970;2022-08-11T13:27:23;35.30;56.10
16515;DHT22;8370;52.556;7.970;2022-08-11T13:29:50;35.00;56.80
16515;DHT22;8370;52.556;7.970;2022-08-11T13:32:38;34.70;56.70
16515;DHT22;8370;52.556;7.970;2022-08-11T13:35:04;34.60;56.40
16515;DHT22;8370;52.556;7.970;2022-08-11T13:37:30;34.50;55.90
16515;DHT22;8370;52.556;7.970;2022-08-11T13:40:00;34.40;56.50
16515;DHT22;8370;52.556;7.970;2022-08-11T13:42:27;34.40;56.70
16515;DHT22;8370;52.556;7.970;2022-08-11T13:44:53;34.30;56.10
16515;DHT22;8370;52.556;7.970;2022-08-11T13:47:21;34.30;57.60
16515;DHT22;8370;52.556;7.970;2022-08-11T13:49:48;34.20;57.90
16515;DHT22;8370;52.556;7.970;2022-08-11T13:52:15;34.20;58.20
16515;DHT22;8370;52.556;7.970;2022-08-11T13:54:42;34.00;58.20
16515;DHT22;8370;52.556;7.970;2022-08-11T13:57:10;33.90;58.80
16515;DHT22;8370;52.556;7.970;2022-08-11T13:59:37;33.80;59.50
16515;DHT22;8370;52.556;7.970;2022-08-11T14:02:06;33.70;58.90
16515;DHT22;8370;52.556;7.970;2022-08-11T14:04:40;33.60;58.80
16515;DHT22;8370;52.556;7.970;2022-08-11T14:07:08;33.40;58.80
16515;DHT22;8370;52.556;7.970;2022-08-11T14:09:37;33.30;60.40
16515;DHT22;8370;52.556;7.970;2022-08-11T14:12:08;33.30;60.10
16515;DHT22;8370;52.556;7.970;2022-08-11T14:15:44;33.30;59.10
16515;DHT22;8370;52.556;7.970;2022-08-11T14:17:47;33.10;58.80
16515;DHT22;8370;52.556;7.970;2022-08-11T14:20:17;33.00;59.90
16515;DHT22;8370;52.556;7.970;2022-08-11T14:22:44;32.90;59.90
16515;DHT22;8370;52.556;7.970;2022-08-11T14:25:15;32.80;59.70
16515;DHT22;8370;52.556;7.970;2022-08-11T14:27:42;32.70;59.90
16515;DHT22;8370;52.556;7.970;2022-08-11T14:30:09;32.60;60.80
16515;DHT22;8370;52.556;7.970;2022-08-11T14:32:55;32.50;61.40
16515;DHT22;8370;52.556;7.970;2022-08-11T14:35:22;32.40;60.80
16515;DHT22;8370;52.556;7.970;2022-08-11T14:37:48;32.40;61.90
16515;DHT22;8370;52.556;7.970;2022-08-11T14:40:13;32.30;61.90
16515;DHT22;8370;52.556;7.970;2022-08-11T14:43:00;32.20;61.10
16515;DHT22;8370;52.556;7.970;2022-08-11T14:45:46;32.20;62.50
16515;DHT22;8370;52.556;7.970;2022-08-11T14:48:30;32.20;61.70
16515;DHT22;8370;52.556;7.970;2022-08-11T14:50:56;32.20;61.40
16515;DHT22;8370;52.556;7.970;2022-08-11T14:53:22;32.10;61.10
16515;DHT22;8370;52.556;7.970;2022-08-11T14:55:48;32.10;61.10
16515;DHT22;8370;52.556;7.970;2022-08-11T14:58:34;32.10;61.70
16515;DHT22;8370;52.556;7.970;2022-08-11T15:01:02;32.00;62.50
16515;DHT22;8370;52.556;7.970;2022-08-11T15:03:48;32.00;62.90
16515;DHT22;8370;52.556;7.970;2022-08-11T15:06:16;32.00;62.70
16515;DHT22;8370;52.556;7.970;2022-08-11T15:08:42;31.90;62.60
16515;DHT22;8370;52.556;7.970;2022-08-11T15:11:28;31.80;62.90
16515;DHT22;8370;52.556;7.970;2022-08-11T15:14:13;31.80;63.70
16515;DHT22;8370;52.556;7.970;2022-08-11T15:16:42;31.70;63.20
16515;DHT22;8370;52.556;7.970;2022-08-11T15:19:28;31.70;62.70
16515;DHT22;8370;52.556;7.970;2022-08-11T15:21:54;31.60;63.70
16515;DHT22;8370;52.556;7.970;2022-08-11T15:24:38;31.50;62.50
16515;DHT22;8370;52.556;7.970;2022-08-11T15:27:11;31.50;63.30
16515;DHT22;8370;52.556;7.970;2022-08-11T15:29:57;31.50;63.00
16515;DHT22;8370;52.556;7.970;2022-08-11T15:32:44;31.40;62.70
16515;DHT22;8370;52.556;7.970;2022-08-11T15:35:29;31.40;62.40
16515;DHT22;8370;52.556;7.970;2022-08-11T15:38:38;31.40;63.50
16515;DHT22;8370;52.556;7.970;2022-08-11T15:41:04;31.30;63.60
16515;DHT22;8370;52.556;7.970;2022-08-11T15:43:52;31.30;64.80
16515;DHT22;8370;52.556;7.970;2022-08-11T15:46:44;31.30;65.30
16515;DHT22;8370;52.556;7.970;2022-08-11T15:49:30;31.20;64.80
16515;DHT22;8370;52.556;7.970;2022-08-11T15:52:01;31.20;63.80
16515;DHT22;8370;52.556;7.970;2022-08-11T15:54:30;31.20;64.90
16515;DHT22;8370;52.556;7.970;2022-08-11T15:56:57;31.10;64.80
16515;DHT22;8370;52.556;7.970;2022-08-11T15:59:25;31.10;65.50
16515;DHT22;8370;52.556;7.970;2022-08-11T16:02:14;31.10;64.90
16515;DHT22;8370;52.556;7.970;2022-08-11T16:05:01;31.00;65.80
16515;DHT22;8370;52.556;7.970;2022-08-11T16:07:32;30.90;66.80
16515;DHT22;8370;52.556;7.970;2022-08-11T16:10:12;30.90;66.40
16515;DHT22;8370;52.556;7.970;2022-08-11T16:13:02;30.80;67.00
16515;DHT22;8370;52.556;7.970;2022-08-11T16:15:46;30.80;68.00
16515;DHT22;8370;52.556;7.970;2022-08-11T16:18:35;30.80;67.30
16515;DHT22;8370;52.556;7.970;2022-08-11T16:21:27;30.80;66.80
16515;DHT22;8370;52.556;7.970;2022-08-11T16:23:56;30.80;66.70
16515;DHT22;8370;52.556;7.970;2022-08-11T16:26:23;30.90;67.20
16515;DHT22;8370;52.556;7.970;2022-08-11T16:28:51;30.90;67.00
16515;DHT22;8370;52.556;7.970;2022-08-11T16:31:20;30.90;66.10
16515;DHT22;8370;52.556;7.970;2022-08-11T16:33:46;30.80;65.70
16515;DHT22;8370;52.556;7.970;2022-08-11T16:36:13;30.80;66.20
16515;DHT22;8370;52.556;7.970;2022-08-11T16:38:59;30.70;66.00
16515;DHT22;8370;52.556;7.970;2022-08-11T16:41:31;30.70;66.00
16515;DHT22;8370;52.556;7.970;2022-08-11T16:44:18;30.60;65.60
16515;DHT22;8370;52.556;7.970;2022-08-11T16:47:06;30.50;66.20
16515;DHT22;8370;52.556;7.970;2022-08-11T16:49:35;30.40;67.50
16515;DHT22;8370;52.556;7.970;2022-08-11T16:52:03;30.40;67.10
16515;DHT22;8370;52.556;7.970;2022-08-11T16:54:33;30.30;67.00
16515;DHT22;8370;52.556;7.970;2022-08-11T16:57:02;30.20;66.50
16515;DHT22;8370;52.556;7.970;2022-08-11T16:59:53;30.10;66.60
16515;DHT22;8370;52.556;7.970;2022-08-11T17:02:23;30.00;67.00
16515;DHT22;8370;52.556;7.970;2022-08-11T17:05:14;29.90;66.60
16515;DHT22;8370;52.556;7.970;2022-08-11T17:08:01;29.80;66.10
16515;DHT22;8370;52.556;7.970;2022-08-11T17:10:54;29.80;66.40
16515;DHT22;8370;52.556;7.970;2022-08-11T17:13:43;29.60;66.50
16515;DHT22;8370;52.556;7.970;2022-08-11T17:16:13;29.50;66.50
16515;DHT22;8370;52.556;7.970;2022-08-11T17:18:42;29.40;66.70
16515;DHT22;8370;52.556;7.970;2022-08-11T17:21:13;29.40;66.30
16515;DHT22;8370;52.556;7.970;2022-08-11T17:23:42;29.40;66.50
16515;DHT22;8370;52.556;7.970;2022-08-11T17:26:19;29.30;66.20
16515;DHT22;8370;52.556;7.970;2022-08-11T17:28:49;29.30;67.20
16515;DHT22;8370;52.556;7.970;2022-08-11T17:31:18;29.20;67.80
16515;DHT22;8370;52.556;7.970;2022-08-11T17:34:05;29.10;68.60
16515;DHT22;8370;52.556;7.970;2022-08-11T17:36:52;29.00;68.60
16515;DHT22;8370;52.556;7.970;2022-08-11T17:39:18;28.90;68.80
16515;DHT22;8370;52.556;7.970;2022-08-11T17:41:45;28.80;69.50
16515;DHT22;8370;52.556;7.970;2022-08-11T17:44:29;28.90;70.60
16515;DHT22;8370;52.556;7.970;2022-08-11T17:47:15;29.60;70.60
16515;DHT22;8370;52.556;7.970;2022-08-11T17:50:02;31.40;69.70
16515;DHT22;8370;52.556;7.970;2022-08-11T17:52:28;33.40;67.20
16515;DHT22;8370;52.556;7.970;2022-08-11T17:55:14;34.80;64.80
16515;DHT22;8370;52.556;7.970;2022-08-11T17:57:59;35.90;62.50
16515;DHT22;8370;52.556;7.970;2022-08-11T18:00:43;36.00;61.50
16515;DHT22;8370;52.556;7.970;2022-08-11T18:03:10;34.80;61.90
16515;DHT22;8370;52.556;7.970;2022-08-11T18:05:55;33.60;63.00
16515;DHT22;8370;52.556;7.970;2022-08-11T18:08:22;32.20;65.20
16515;DHT22;8370;52.556;7.970;2022-08-11T18:11:07;31.10;67.00
16515;DHT22;8370;52.556;7.970;2022-08-11T18:13:52;30.20;68.90
16515;DHT22;8370;52.556;7.970;2022-08-11T18:16:36;29.40;71.00
16515;DHT22;8370;52.556;7.970;2022-08-11T18:19:21;28.80;72.40
16515;DHT22;8370;52.556;7.970;2022-08-11T18:22:12;28.30;73.90
16515;DHT22;8370;52.556;7.970;2022-08-11T18:25:02;27.90;75.40
16515;DHT22;8370;52.556;7.970;2022-08-11T18:27:51;27.50;76.50
16515;DHT22;8370;52.556;7.970;2022-08-11T18:30:37;27.20;77.70
16515;DHT22;8370;52.556;7.970;2022-08-11T18:33:26;26.90;78.50
16515;DHT22;8370;52.556;7.970;2022-08-11T18:36:16;26.70;79.40
16515;DHT22;8370;52.556;7.970;2022-08-11T18:39:02;26.50;80.00
16515;DHT22;8370;52.556;7.970;2022-08-11T18:41:49;26.30;80.40
16515;DHT22;8370;52.556;7.970;2022-08-11T18:44:36;26.10;81.00
16515;DHT22;8370;52.556;7.970;2022-08-11T18:47:22;26.00;81.70
16515;DHT22;8370;52.556;7.970;2022-08-11T18:50:09;25.80;82.50
16515;DHT22;8370;52.556;7.970;2022-08-11T18:52:55;25.70;83.00
16515;DHT22;8370;52.556;7.970;2022-08-11T18:55:41;25.50;83.10
16515;DHT22;8370;52.556;7.970;2022-08-11T18:58:28;25.40;83.30
16515;DHT22;8370;52.556;7.970;2022-08-11T19:01:14;25.30;83.90
16515;DHT22;8370;52.556;7.970;2022-08-11T19:04:02;25.20;84.20
16515;DHT22;8370;52.556;7.970;2022-08-11T19:06:49;25.10;84.70
16515;DHT22;8370;52.556;7.970;2022-08-11T19:09:35;24.90;84.80
16515;DHT22;8370;52.556;7.970;2022-08-11T19:12:22;24.80;85.10
16515;DHT22;8370;52.556;7.970;2022-08-11T19:15:08;24.70;85.60
16515;DHT22;8370;52.556;7.970;2022-08-11T19:17:53;24.60;85.90
16515;DHT22;8370;52.556;7.970;2022-08-11T19:20:38;24.60;86.30
16515;DHT22;8370;52.556;7.970;2022-08-11T19:23:35;24.40;87.40
16515;DHT22;8370;52.556;7.970;2022-08-11T19:26:22;24.30;87.10
16515;DHT22;8370;52.556;7.970;2022-08-11T19:29:07;24.20;87.60
16515;DHT22;8370;52.556;7.970;2022-08-11T19:31:53;24.10;87.80
16515;DHT22;8370;52.556;7.970;2022-08-11T19:34:39;24.00;88.00
16515;DHT22;8370;52.556;7.970;2022-08-11T19:37:24;23.90;88.40
16515;DHT22;8370;52.556;7.970;2022-08-11T19:40:10;23.80;88.80
16515;DHT22;8370;52.556;7.970;2022-08-11T19:42:56;23.80;89.00
16515;DHT22;8370;52.556;7.970;2022-08-11T19:45:41;23.70;89.30
16515;DHT22;8370;52.556;7.970;2022-08-11T19:48:27;23.70;89.70